Hovedside
METAR-TAF:

METAR-TAF

Lufthavner :

Tokyo-Haneda, Japan

breddegrad: 35-33N, lengdegrad: 139-47E, høyde over havet: 5 m

Gjeldene værobservasjon

Denne rapporten ble laget for 38 minutter siden, klokken 19:00 UTC
Vind 4 kt fra Vest
Temperatur 11°C
Luftfuktighet 76%
Trykk 1014 hPa
Sikt 10 km eller mer
Få skyer i en høyde av 2500 ft

METAR: RJTT 151900Z 28004KT 9999 FEW025 11/07 Q1014 NOSIG RMK 1CU025 A2996

Tid: 04:38 (19:38 UTC)

Varsel

Denne rapporten ble laget for 2 timer og 33 minutter siden, klokken 17:05 UTC
Varsel gyldig fra 15. klokken 18 UTC til 17. klokken 00 UTC
Vind 5 kt fra Nord-nordvest
Sikt 10 km eller mer
Få skyer i en høyde av 3000 ft
Blir
fra 16. klokken 01 UTC til 16. klokken 03 UTC
Vind 5 kt fra Øst-sørøst
Blir
fra 16. klokken 09 UTC til 16. klokken 12 UTC
Vind 10 kt fra Nord

TAF: RJTT 151705Z 1518/1700 33005KT 9999 FEW030 BECMG 1601/1603 12005KT BECMG 1609/1612 35010KT

Værobservasjoner og værvarsel for over 4000 flyplasser (METAR- og TAF-rapporter).

Tilgjengelige stasjoner er representert av de røde og gule prikkene på kartet.

Hold musepekeren over prikken for å se navnet på stasjonen.

Klikk så for å se værobservasjoner og -varsler.

For å forandre kartet kan du klikke på den grønne knappen med svart kryss for å zoome inn, på den grønne knappen med strek for å zoome ut, eller på de grønne pilene for å se tilstøtende kart.


METAR-TAF: